sensor_id;sensor_type;location;lat;lon;timestamp;temperature;humidity
11474;DHT22;5793;52.238;13.438;2024-02-28T00:01:03;4.40;99.90
11474;DHT22;5793;52.238;13.438;2024-02-28T00:03:31;4.50;99.90
11474;DHT22;5793;52.238;13.438;2024-02-28T00:05:59;4.50;99.90
11474;DHT22;5793;52.238;13.438;2024-02-28T00:08:27;4.50;99.90
11474;DHT22;5793;52.238;13.438;2024-02-28T00:10:55;4.50;99.90
11474;DHT22;5793;52.238;13.438;2024-02-28T00:13:23;4.40;99.90
11474;DHT22;5793;52.238;13.438;2024-02-28T00:15:52;4.50;99.90
11474;DHT22;5793;52.238;13.438;2024-02-28T00:18:20;4.40;99.90
11474;DHT22;5793;52.238;13.438;2024-02-28T00:20:48;4.50;99.90
11474;DHT22;5793;52.238;13.438;2024-02-28T00:23:16;4.40;99.90
11474;DHT22;5793;52.238;13.438;2024-02-28T00:25:43;4.50;99.90
11474;DHT22;5793;52.238;13.438;2024-02-28T00:28:11;4.50;99.90
11474;DHT22;5793;52.238;13.438;2024-02-28T00:30:39;4.40;99.90
11474;DHT22;5793;52.238;13.438;2024-02-28T00:33:09;4.50;99.90
11474;DHT22;5793;52.238;13.438;2024-02-28T00:35:37;4.40;99.90
11474;DHT22;5793;52.238;13.438;2024-02-28T00:38:08;4.40;99.90
11474;DHT22;5793;52.238;13.438;2024-02-28T00:40:36;4.40;99.90
11474;DHT22;5793;52.238;13.438;2024-02-28T00:43:04;4.30;99.90
11474;DHT22;5793;52.238;13.438;2024-02-28T00:45:32;4.30;99.90
11474;DHT22;5793;52.238;13.438;2024-02-28T00:48:00;4.30;99.90
11474;DHT22;5793;52.238;13.438;2024-02-28T00:50:29;4.20;99.90
11474;DHT22;5793;52.238;13.438;2024-02-28T00:52:57;4.30;99.90
11474;DHT22;5793;52.238;13.438;2024-02-28T00:55:25;4.30;99.90
11474;DHT22;5793;52.238;13.438;2024-02-28T00:57:53;4.30;99.90
11474;DHT22;5793;52.238;13.438;2024-02-28T01:00:21;4.20;99.90
11474;DHT22;5793;52.238;13.438;2024-02-28T01:02:49;4.20;99.90
11474;DHT22;5793;52.238;13.438;2024-02-28T01:05:17;4.20;99.90
11474;DHT22;5793;52.238;13.438;2024-02-28T01:07:46;4.20;99.90
11474;DHT22;5793;52.238;13.438;2024-02-28T01:10:14;4.30;99.90
11474;DHT22;5793;52.238;13.438;2024-02-28T01:12:41;4.30;99.90
11474;DHT22;5793;52.238;13.438;2024-02-28T01:15:09;4.30;99.90
11474;DHT22;5793;52.238;13.438;2024-02-28T01:17:37;4.30;99.90
11474;DHT22;5793;52.238;13.438;2024-02-28T01:20:06;4.20;99.90
11474;DHT22;5793;52.238;13.438;2024-02-28T01:22:35;4.20;99.90
11474;DHT22;5793;52.238;13.438;2024-02-28T01:25:04;4.20;99.90
11474;DHT22;5793;52.238;13.438;2024-02-28T01:27:33;4.30;99.90
11474;DHT22;5793;52.238;13.438;2024-02-28T01:30:02;4.30;99.90
11474;DHT22;5793;52.238;13.438;2024-02-28T01:32:30;4.20;99.90
11474;DHT22;5793;52.238;13.438;2024-02-28T01:34:58;4.20;99.90
11474;DHT22;5793;52.238;13.438;2024-02-28T01:37:25;4.20;99.90
11474;DHT22;5793;52.238;13.438;2024-02-28T01:39:53;4.20;99.90
11474;DHT22;5793;52.238;13.438;2024-02-28T01:42:22;4.20;99.90
11474;DHT22;5793;52.238;13.438;2024-02-28T01:44:50;4.20;99.90
11474;DHT22;5793;52.238;13.438;2024-02-28T01:47:18;4.20;99.90
11474;DHT22;5793;52.238;13.438;2024-02-28T01:49:47;4.20;99.90
11474;DHT22;5793;52.238;13.438;2024-02-28T01:52:15;4.20;99.90
11474;DHT22;5793;52.238;13.438;2024-02-28T01:54:43;4.20;99.90
11474;DHT22;5793;52.238;13.438;2024-02-28T01:57:11;4.10;99.90
11474;DHT22;5793;52.238;13.438;2024-02-28T01:59:40;4.10;99.90
11474;DHT22;5793;52.238;13.438;2024-02-28T02:02:08;4.10;99.90
11474;DHT22;5793;52.238;13.438;2024-02-28T02:04:36;4.10;99.90
11474;DHT22;5793;52.238;13.438;2024-02-28T02:07:05;4.20;99.90
11474;DHT22;5793;52.238;13.438;2024-02-28T02:09:34;4.20;99.90
11474;DHT22;5793;52.238;13.438;2024-02-28T02:12:02;4.10;99.90
11474;DHT22;5793;52.238;13.438;2024-02-28T02:14:30;4.10;99.90
11474;DHT22;5793;52.238;13.438;2024-02-28T02:16:59;4.10;99.90
11474;DHT22;5793;52.238;13.438;2024-02-28T02:19:27;4.10;99.90
11474;DHT22;5793;52.238;13.438;2024-02-28T02:21:58;4.10;99.90
11474;DHT22;5793;52.238;13.438;2024-02-28T02:24:27;4.20;99.90
11474;DHT22;5793;52.238;13.438;2024-02-28T02:26:57;4.10;99.90
11474;DHT22;5793;52.238;13.438;2024-02-28T02:29:25;4.10;99.90
11474;DHT22;5793;52.238;13.438;2024-02-28T02:31:54;4.20;99.90
11474;DHT22;5793;52.238;13.438;2024-02-28T02:34:22;4.20;99.90
11474;DHT22;5793;52.238;13.438;2024-02-28T02:36:50;4.20;99.90
11474;DHT22;5793;52.238;13.438;2024-02-28T02:39:18;4.20;99.90
11474;DHT22;5793;52.238;13.438;2024-02-28T02:41:47;4.20;99.90
11474;DHT22;5793;52.238;13.438;2024-02-28T02:44:15;4.20;99.90
11474;DHT22;5793;52.238;13.438;2024-02-28T02:46:43;4.20;99.90
11474;DHT22;5793;52.238;13.438;2024-02-28T02:49:11;4.30;99.90
11474;DHT22;5793;52.238;13.438;2024-02-28T02:51:38;4.30;99.90
11474;DHT22;5793;52.238;13.438;2024-02-28T02:54:09;4.40;99.90
11474;DHT22;5793;52.238;13.438;2024-02-28T02:56:37;4.30;99.90
11474;DHT22;5793;52.238;13.438;2024-02-28T02:59:06;4.30;99.90
11474;DHT22;5793;52.238;13.438;2024-02-28T03:01:33;4.20;99.90
11474;DHT22;5793;52.238;13.438;2024-02-28T03:04:01;4.30;99.90
11474;DHT22;5793;52.238;13.438;2024-02-28T03:06:29;4.30;99.90
11474;DHT22;5793;52.238;13.438;2024-02-28T03:08:57;4.30;99.90
11474;DHT22;5793;52.238;13.438;2024-02-28T03:11:24;4.30;99.90
11474;DHT22;5793;52.238;13.438;2024-02-28T03:13:52;4.20;99.90
11474;DHT22;5793;52.238;13.438;2024-02-28T03:16:21;4.20;99.90
11474;DHT22;5793;52.238;13.438;2024-02-28T03:18:49;4.10;99.90
11474;DHT22;5793;52.238;13.438;2024-02-28T03:21:17;4.00;99.90
11474;DHT22;5793;52.238;13.438;2024-02-28T03:23:45;4.00;99.90
11474;DHT22;5793;52.238;13.438;2024-02-28T03:26:13;4.00;99.90
11474;DHT22;5793;52.238;13.438;2024-02-28T03:28:40;4.00;99.90
11474;DHT22;5793;52.238;13.438;2024-02-28T03:31:08;4.00;99.90
11474;DHT22;5793;52.238;13.438;2024-02-28T03:33:37;4.00;99.90
11474;DHT22;5793;52.238;13.438;2024-02-28T03:36:06;4.00;99.90
11474;DHT22;5793;52.238;13.438;2024-02-28T03:38:33;3.90;99.90
11474;DHT22;5793;52.238;13.438;2024-02-28T03:41:02;4.00;99.90
11474;DHT22;5793;52.238;13.438;2024-02-28T03:43:29;4.00;99.90
11474;DHT22;5793;52.238;13.438;2024-02-28T03:45:57;3.90;99.90
11474;DHT22;5793;52.238;13.438;2024-02-28T03:48:25;3.90;99.90
11474;DHT22;5793;52.238;13.438;2024-02-28T03:50:54;3.90;99.90
11474;DHT22;5793;52.238;13.438;2024-02-28T03:53:22;3.90;99.90
11474;DHT22;5793;52.238;13.438;2024-02-28T03:55:50;3.80;99.90
11474;DHT22;5793;52.238;13.438;2024-02-28T03:58:18;3.90;99.90
11474;DHT22;5793;52.238;13.438;2024-02-28T04:00:46;3.90;99.90
11474;DHT22;5793;52.238;13.438;2024-02-28T04:03:14;4.00;99.90
11474;DHT22;5793;52.238;13.438;2024-02-28T04:05:42;3.90;99.90
11474;DHT22;5793;52.238;13.438;2024-02-28T04:08:11;4.00;99.90
11474;DHT22;5793;52.238;13.438;2024-02-28T04:10:39;4.00;99.90
11474;DHT22;5793;52.238;13.438;2024-02-28T04:13:06;4.00;99.90
11474;DHT22;5793;52.238;13.438;2024-02-28T04:15:34;4.00;99.90
11474;DHT22;5793;52.238;13.438;2024-02-28T04:18:04;4.00;99.90
11474;DHT22;5793;52.238;13.438;2024-02-28T04:20:32;4.10;99.90
11474;DHT22;5793;52.238;13.438;2024-02-28T04:23:00;4.10;99.90
11474;DHT22;5793;52.238;13.438;2024-02-28T04:25:29;4.10;99.90
11474;DHT22;5793;52.238;13.438;2024-02-28T04:27:57;4.10;99.90
11474;DHT22;5793;52.238;13.438;2024-02-28T04:30:24;4.00;99.90
11474;DHT22;5793;52.238;13.438;2024-02-28T04:32:52;4.10;99.90
11474;DHT22;5793;52.238;13.438;2024-02-28T04:35:20;4.00;99.90
11474;DHT22;5793;52.238;13.438;2024-02-28T04:37:48;4.10;99.90
11474;DHT22;5793;52.238;13.438;2024-02-28T04:40:16;4.10;99.90
11474;DHT22;5793;52.238;13.438;2024-02-28T04:42:45;4.10;99.90
11474;DHT22;5793;52.238;13.438;2024-02-28T04:45:13;4.10;99.90
11474;DHT22;5793;52.238;13.438;2024-02-28T04:47:41;4.10;99.90
11474;DHT22;5793;52.238;13.438;2024-02-28T04:50:11;4.10;99.90
11474;DHT22;5793;52.238;13.438;2024-02-28T04:52:39;4.10;99.90
11474;DHT22;5793;52.238;13.438;2024-02-28T04:55:07;4.10;99.90
11474;DHT22;5793;52.238;13.438;2024-02-28T04:57:35;4.10;99.90
11474;DHT22;5793;52.238;13.438;2024-02-28T05:00:05;4.00;99.90
11474;DHT22;5793;52.238;13.438;2024-02-28T05:02:34;4.10;99.90
11474;DHT22;5793;52.238;13.438;2024-02-28T05:05:02;4.00;99.90
11474;DHT22;5793;52.238;13.438;2024-02-28T05:07:30;4.10;99.90
11474;DHT22;5793;52.238;13.438;2024-02-28T05:09:58;4.10;99.90
11474;DHT22;5793;52.238;13.438;2024-02-28T05:12:26;4.10;99.90
11474;DHT22;5793;52.238;13.438;2024-02-28T05:14:53;4.10;99.90
11474;DHT22;5793;52.238;13.438;2024-02-28T05:17:22;4.10;99.90
11474;DHT22;5793;52.238;13.438;2024-02-28T05:19:51;4.10;99.90
11474;DHT22;5793;52.238;13.438;2024-02-28T05:22:18;4.20;99.90
11474;DHT22;5793;52.238;13.438;2024-02-28T05:24:46;4.10;99.90
11474;DHT22;5793;52.238;13.438;2024-02-28T05:27:14;4.10;99.90
11474;DHT22;5793;52.238;13.438;2024-02-28T05:29:42;4.00;99.90
11474;DHT22;5793;52.238;13.438;2024-02-28T05:32:10;4.00;99.90
11474;DHT22;5793;52.238;13.438;2024-02-28T05:34:39;4.10;99.90
11474;DHT22;5793;52.238;13.438;2024-02-28T05:37:07;4.00;99.90
11474;DHT22;5793;52.238;13.438;2024-02-28T05:39:35;4.00;99.90
11474;DHT22;5793;52.238;13.438;2024-02-28T05:42:03;4.00;99.90
11474;DHT22;5793;52.238;13.438;2024-02-28T05:44:31;4.00;99.90
11474;DHT22;5793;52.238;13.438;2024-02-28T05:46:58;3.90;99.90
11474;DHT22;5793;52.238;13.438;2024-02-28T05:49:27;3.90;99.90
11474;DHT22;5793;52.238;13.438;2024-02-28T05:51:56;3.90;99.90
11474;DHT22;5793;52.238;13.438;2024-02-28T05:54:23;3.90;99.90
11474;DHT22;5793;52.238;13.438;2024-02-28T05:56:55;3.80;99.90
11474;DHT22;5793;52.238;13.438;2024-02-28T05:59:24;3.90;99.90
11474;DHT22;5793;52.238;13.438;2024-02-28T06:01:52;3.90;99.90
11474;DHT22;5793;52.238;13.438;2024-02-28T06:04:19;3.80;99.90
11474;DHT22;5793;52.238;13.438;2024-02-28T06:06:47;3.80;99.90
11474;DHT22;5793;52.238;13.438;2024-02-28T06:09:18;3.90;99.90
11474;DHT22;5793;52.238;13.438;2024-02-28T06:11:46;3.90;99.90
11474;DHT22;5793;52.238;13.438;2024-02-28T06:14:14;3.90;99.90
11474;DHT22;5793;52.238;13.438;2024-02-28T06:16:42;3.90;99.90
11474;DHT22;5793;52.238;13.438;2024-02-28T06:19:09;3.90;99.90
11474;DHT22;5793;52.238;13.438;2024-02-28T06:21:37;3.80;99.90
11474;DHT22;5793;52.238;13.438;2024-02-28T06:24:05;3.80;99.90
11474;DHT22;5793;52.238;13.438;2024-02-28T06:26:34;3.80;99.90
11474;DHT22;5793;52.238;13.438;2024-02-28T06:29:02;3.80;99.90
11474;DHT22;5793;52.238;13.438;2024-02-28T06:31:32;3.80;99.90
11474;DHT22;5793;52.238;13.438;2024-02-28T06:34:00;3.80;99.90
11474;DHT22;5793;52.238;13.438;2024-02-28T06:36:29;3.80;99.90
11474;DHT22;5793;52.238;13.438;2024-02-28T06:38:57;3.80;99.90
11474;DHT22;5793;52.238;13.438;2024-02-28T06:41:25;3.80;99.90
11474;DHT22;5793;52.238;13.438;2024-02-28T06:43:54;3.70;99.90
11474;DHT22;5793;52.238;13.438;2024-02-28T06:46:22;3.70;99.90
11474;DHT22;5793;52.238;13.438;2024-02-28T06:48:50;3.70;99.90
11474;DHT22;5793;52.238;13.438;2024-02-28T06:51:17;3.70;99.90
11474;DHT22;5793;52.238;13.438;2024-02-28T06:53:45;3.70;99.90
11474;DHT22;5793;52.238;13.438;2024-02-28T06:56:13;3.70;99.90
11474;DHT22;5793;52.238;13.438;2024-02-28T06:58:41;3.80;99.90
11474;DHT22;5793;52.238;13.438;2024-02-28T07:01:10;3.80;99.90
11474;DHT22;5793;52.238;13.438;2024-02-28T07:03:38;3.80;99.90
11474;DHT22;5793;52.238;13.438;2024-02-28T07:06:06;3.80;99.90
11474;DHT22;5793;52.238;13.438;2024-02-28T07:08:34;3.90;99.90
11474;DHT22;5793;52.238;13.438;2024-02-28T07:11:01;3.90;99.90
11474;DHT22;5793;52.238;13.438;2024-02-28T07:13:29;3.90;99.90
11474;DHT22;5793;52.238;13.438;2024-02-28T07:15:57;4.00;99.90
11474;DHT22;5793;52.238;13.438;2024-02-28T07:18:27;3.90;99.90
11474;DHT22;5793;52.238;13.438;2024-02-28T07:20:56;4.00;99.90
11474;DHT22;5793;52.238;13.438;2024-02-28T07:23:24;4.00;99.90
11474;DHT22;5793;52.238;13.438;2024-02-28T07:25:52;3.90;99.90
11474;DHT22;5793;52.238;13.438;2024-02-28T07:28:20;3.90;99.90
11474;DHT22;5793;52.238;13.438;2024-02-28T07:30:47;3.90;99.90
11474;DHT22;5793;52.238;13.438;2024-02-28T07:33:15;3.90;99.90
11474;DHT22;5793;52.238;13.438;2024-02-28T07:35:45;3.90;99.90
11474;DHT22;5793;52.238;13.438;2024-02-28T07:38:13;3.90;99.90
11474;DHT22;5793;52.238;13.438;2024-02-28T07:40:42;3.90;99.90
11474;DHT22;5793;52.238;13.438;2024-02-28T07:43:10;3.90;99.90
11474;DHT22;5793;52.238;13.438;2024-02-28T07:45:38;3.90;99.90
11474;DHT22;5793;52.238;13.438;2024-02-28T07:48:06;3.90;99.90
11474;DHT22;5793;52.238;13.438;2024-02-28T07:50:34;3.90;99.90
11474;DHT22;5793;52.238;13.438;2024-02-28T07:53:04;3.90;99.90
11474;DHT22;5793;52.238;13.438;2024-02-28T07:55:31;3.90;99.90
11474;DHT22;5793;52.238;13.438;2024-02-28T07:57:59;3.80;99.90
11474;DHT22;5793;52.238;13.438;2024-02-28T08:00:27;3.70;99.90
11474;DHT22;5793;52.238;13.438;2024-02-28T08:02:57;3.70;99.90
11474;DHT22;5793;52.238;13.438;2024-02-28T08:05:24;3.70;99.90
11474;DHT22;5793;52.238;13.438;2024-02-28T08:07:52;3.70;99.90
11474;DHT22;5793;52.238;13.438;2024-02-28T08:10:21;3.60;99.90
11474;DHT22;5793;52.238;13.438;2024-02-28T08:12:49;3.60;99.90
11474;DHT22;5793;52.238;13.438;2024-02-28T08:15:17;3.60;99.90
11474;DHT22;5793;52.238;13.438;2024-02-28T08:17:45;3.60;99.90
11474;DHT22;5793;52.238;13.438;2024-02-28T08:20:13;3.60;99.90
11474;DHT22;5793;52.238;13.438;2024-02-28T08:22:41;3.60;99.90
11474;DHT22;5793;52.238;13.438;2024-02-28T08:25:09;3.70;99.90
11474;DHT22;5793;52.238;13.438;2024-02-28T08:27:39;3.70;99.90
11474;DHT22;5793;52.238;13.438;2024-02-28T08:30:08;3.80;99.90
11474;DHT22;5793;52.238;13.438;2024-02-28T08:32:36;3.90;99.90
11474;DHT22;5793;52.238;13.438;2024-02-28T08:35:08;3.90;99.90
11474;DHT22;5793;52.238;13.438;2024-02-28T08:37:38;3.90;99.90
11474;DHT22;5793;52.238;13.438;2024-02-28T08:40:07;3.90;99.90
11474;DHT22;5793;52.238;13.438;2024-02-28T08:42:35;3.80;99.90
11474;DHT22;5793;52.238;13.438;2024-02-28T08:45:05;3.80;99.90
11474;DHT22;5793;52.238;13.438;2024-02-28T08:47:33;3.90;99.90
11474;DHT22;5793;52.238;13.438;2024-02-28T08:50:01;3.90;99.90
11474;DHT22;5793;52.238;13.438;2024-02-28T08:52:29;3.90;99.90
11474;DHT22;5793;52.238;13.438;2024-02-28T08:54:56;3.80;99.90
11474;DHT22;5793;52.238;13.438;2024-02-28T08:57:24;3.80;99.90
11474;DHT22;5793;52.238;13.438;2024-02-28T08:59:52;3.80;99.90
11474;DHT22;5793;52.238;13.438;2024-02-28T09:02:21;3.80;99.90
11474;DHT22;5793;52.238;13.438;2024-02-28T09:04:49;3.80;99.90
11474;DHT22;5793;52.238;13.438;2024-02-28T09:07:18;3.80;99.90
11474;DHT22;5793;52.238;13.438;2024-02-28T09:09:46;3.80;99.90
11474;DHT22;5793;52.238;13.438;2024-02-28T09:12:15;3.80;99.90
11474;DHT22;5793;52.238;13.438;2024-02-28T09:14:42;3.90;99.90
11474;DHT22;5793;52.238;13.438;2024-02-28T09:17:11;3.90;99.90
11474;DHT22;5793;52.238;13.438;2024-02-28T09:19:40;4.00;99.90
11474;DHT22;5793;52.238;13.438;2024-02-28T09:22:08;3.90;99.90
11474;DHT22;5793;52.238;13.438;2024-02-28T09:24:37;4.00;99.90
11474;DHT22;5793;52.238;13.438;2024-02-28T09:27:05;4.00;99.90
11474;DHT22;5793;52.238;13.438;2024-02-28T09:29:33;4.10;99.90
11474;DHT22;5793;52.238;13.438;2024-02-28T09:32:01;4.10;99.90
11474;DHT22;5793;52.238;13.438;2024-02-28T09:34:29;4.10;99.90
11474;DHT22;5793;52.238;13.438;2024-02-28T09:36:58;4.10;99.90
11474;DHT22;5793;52.238;13.438;2024-02-28T09:39:26;4.20;99.90
11474;DHT22;5793;52.238;13.438;2024-02-28T09:41:54;4.20;99.90
11474;DHT22;5793;52.238;13.438;2024-02-28T09:44:22;4.10;99.90
11474;DHT22;5793;52.238;13.438;2024-02-28T09:46:51;4.00;99.90
11474;DHT22;5793;52.238;13.438;2024-02-28T09:49:19;4.00;99.90
11474;DHT22;5793;52.238;13.438;2024-02-28T09:51:49;4.10;99.90
11474;DHT22;5793;52.238;13.438;2024-02-28T09:54:19;4.10;99.90
11474;DHT22;5793;52.238;13.438;2024-02-28T09:56:47;4.10;99.90
11474;DHT22;5793;52.238;13.438;2024-02-28T09:59:15;4.20;99.90
11474;DHT22;5793;52.238;13.438;2024-02-28T10:01:45;4.10;99.90
11474;DHT22;5793;52.238;13.438;2024-02-28T10:04:14;4.10;99.90
11474;DHT22;5793;52.238;13.438;2024-02-28T10:06:42;4.10;99.90
11474;DHT22;5793;52.238;13.438;2024-02-28T10:09:10;4.20;99.90
11474;DHT22;5793;52.238;13.438;2024-02-28T10:11:41;4.20;99.90
11474;DHT22;5793;52.238;13.438;2024-02-28T10:14:17;4.20;99.90
11474;DHT22;5793;52.238;13.438;2024-02-28T10:16:46;4.30;99.90
11474;DHT22;5793;52.238;13.438;2024-02-28T10:19:14;4.30;99.90
11474;DHT22;5793;52.238;13.438;2024-02-28T10:21:42;4.30;99.90
11474;DHT22;5793;52.238;13.438;2024-02-28T10:24:12;4.30;99.90
11474;DHT22;5793;52.238;13.438;2024-02-28T10:26:45;4.40;99.90
11474;DHT22;5793;52.238;13.438;2024-02-28T10:29:14;4.40;99.90
11474;DHT22;5793;52.238;13.438;2024-02-28T10:31:42;4.50;99.90
11474;DHT22;5793;52.238;13.438;2024-02-28T10:34:13;4.60;99.90
11474;DHT22;5793;52.238;13.438;2024-02-28T10:36:46;4.60;99.90
11474;DHT22;5793;52.238;13.438;2024-02-28T10:39:14;4.60;99.90
11474;DHT22;5793;52.238;13.438;2024-02-28T10:41:47;4.60;99.90
11474;DHT22;5793;52.238;13.438;2024-02-28T10:44:16;4.60;99.90
11474;DHT22;5793;52.238;13.438;2024-02-28T10:46:48;4.80;99.90
11474;DHT22;5793;52.238;13.438;2024-02-28T10:49:16;4.80;99.90
11474;DHT22;5793;52.238;13.438;2024-02-28T10:51:46;4.80;99.90
11474;DHT22;5793;52.238;13.438;2024-02-28T10:54:16;4.80;99.90
11474;DHT22;5793;52.238;13.438;2024-02-28T10:56:47;4.90;99.90
11474;DHT22;5793;52.238;13.438;2024-02-28T10:59:16;4.90;99.90
11474;DHT22;5793;52.238;13.438;2024-02-28T11:01:44;4.90;99.90
11474;DHT22;5793;52.238;13.438;2024-02-28T11:04:15;4.80;99.90
11474;DHT22;5793;52.238;13.438;2024-02-28T11:06:50;4.70;99.90
11474;DHT22;5793;52.238;13.438;2024-02-28T11:09:19;4.70;99.90
11474;DHT22;5793;52.238;13.438;2024-02-28T11:11:51;4.90;99.90
11474;DHT22;5793;52.238;13.438;2024-02-28T11:14:20;5.00;99.90
11474;DHT22;5793;52.238;13.438;2024-02-28T11:16:59;5.00;99.90
11474;DHT22;5793;52.238;13.438;2024-02-28T11:19:28;4.90;99.90
11474;DHT22;5793;52.238;13.438;2024-02-28T11:21:57;4.80;99.90
11474;DHT22;5793;52.238;13.438;2024-02-28T11:24:29;4.70;99.90
11474;DHT22;5793;52.238;13.438;2024-02-28T11:26:59;4.80;99.90
11474;DHT22;5793;52.238;13.438;2024-02-28T11:29:28;4.90;99.90
11474;DHT22;5793;52.238;13.438;2024-02-28T11:31:56;5.00;99.90
11474;DHT22;5793;52.238;13.438;2024-02-28T11:34:24;5.10;99.90
11474;DHT22;5793;52.238;13.438;2024-02-28T11:36:52;5.20;99.90
11474;DHT22;5793;52.238;13.438;2024-02-28T11:39:23;5.30;99.90
11474;DHT22;5793;52.238;13.438;2024-02-28T11:41:53;5.40;99.90
11474;DHT22;5793;52.238;13.438;2024-02-28T11:44:22;5.40;99.90
11474;DHT22;5793;52.238;13.438;2024-02-28T11:46:50;5.30;99.90
11474;DHT22;5793;52.238;13.438;2024-02-28T11:49:18;5.40;99.90
11474;DHT22;5793;52.238;13.438;2024-02-28T11:51:46;5.40;99.90
11474;DHT22;5793;52.238;13.438;2024-02-28T11:54:14;5.30;99.90
11474;DHT22;5793;52.238;13.438;2024-02-28T11:56:42;5.20;99.90
11474;DHT22;5793;52.238;13.438;2024-02-28T11:59:11;5.30;99.90
11474;DHT22;5793;52.238;13.438;2024-02-28T12:01:42;5.40;99.90
11474;DHT22;5793;52.238;13.438;2024-02-28T12:04:11;5.50;99.90
11474;DHT22;5793;52.238;13.438;2024-02-28T12:06:40;5.60;99.90
11474;DHT22;5793;52.238;13.438;2024-02-28T12:09:10;5.60;99.90
11474;DHT22;5793;52.238;13.438;2024-02-28T12:11:50;5.60;99.90
11474;DHT22;5793;52.238;13.438;2024-02-28T12:14:18;5.60;99.90
11474;DHT22;5793;52.238;13.438;2024-02-28T12:16:48;5.60;99.90
11474;DHT22;5793;52.238;13.438;2024-02-28T12:19:16;5.60;99.90
11474;DHT22;5793;52.238;13.438;2024-02-28T12:21:46;5.60;99.90
11474;DHT22;5793;52.238;13.438;2024-02-28T12:24:14;5.70;99.90
11474;DHT22;5793;52.238;13.438;2024-02-28T12:26:42;5.60;99.90
11474;DHT22;5793;52.238;13.438;2024-02-28T12:29:10;5.60;99.90
11474;DHT22;5793;52.238;13.438;2024-02-28T12:31:38;5.60;99.90
11474;DHT22;5793;52.238;13.438;2024-02-28T12:34:07;5.80;99.90
11474;DHT22;5793;52.238;13.438;2024-02-28T12:36:35;5.90;99.90
11474;DHT22;5793;52.238;13.438;2024-02-28T12:39:03;5.80;99.90
11474;DHT22;5793;52.238;13.438;2024-02-28T12:41:33;5.80;99.90
11474;DHT22;5793;52.238;13.438;2024-02-28T12:44:01;5.70;99.90
11474;DHT22;5793;52.238;13.438;2024-02-28T12:46:30;5.80;99.90
11474;DHT22;5793;52.238;13.438;2024-02-28T12:48:57;5.70;99.90
11474;DHT22;5793;52.238;13.438;2024-02-28T12:51:40;5.90;99.90
11474;DHT22;5793;52.238;13.438;2024-02-28T12:54:08;5.70;99.90
11474;DHT22;5793;52.238;13.438;2024-02-28T12:56:37;5.70;99.90
11474;DHT22;5793;52.238;13.438;2024-02-28T12:59:05;5.90;99.90
11474;DHT22;5793;52.238;13.438;2024-02-28T13:01:34;6.10;99.90
11474;DHT22;5793;52.238;13.438;2024-02-28T13:04:02;6.30;99.90
11474;DHT22;5793;52.238;13.438;2024-02-28T13:06:31;6.40;99.90
11474;DHT22;5793;52.238;13.438;2024-02-28T13:09:00;6.40;99.90
11474;DHT22;5793;52.238;13.438;2024-02-28T13:11:28;6.40;99.90
11474;DHT22;5793;52.238;13.438;2024-02-28T13:13:56;6.60;99.90
11474;DHT22;5793;52.238;13.438;2024-02-28T13:16:24;6.50;99.90
11474;DHT22;5793;52.238;13.438;2024-02-28T13:18:52;6.40;99.90
11474;DHT22;5793;52.238;13.438;2024-02-28T13:21:20;6.10;99.90
11474;DHT22;5793;52.238;13.438;2024-02-28T13:23:48;6.00;99.90
11474;DHT22;5793;52.238;13.438;2024-02-28T13:26:17;5.80;99.90
11474;DHT22;5793;52.238;13.438;2024-02-28T13:28:45;5.70;99.90
11474;DHT22;5793;52.238;13.438;2024-02-28T13:31:17;5.90;99.90
11474;DHT22;5793;52.238;13.438;2024-02-28T13:33:45;6.30;99.90
11474;DHT22;5793;52.238;13.438;2024-02-28T13:36:15;6.80;99.90
11474;DHT22;5793;52.238;13.438;2024-02-28T13:38:43;7.10;99.90
11474;DHT22;5793;52.238;13.438;2024-02-28T13:41:10;7.10;99.90
11474;DHT22;5793;52.238;13.438;2024-02-28T13:43:40;7.00;99.90
11474;DHT22;5793;52.238;13.438;2024-02-28T13:46:08;6.60;99.90
11474;DHT22;5793;52.238;13.438;2024-02-28T13:48:36;6.40;99.90
11474;DHT22;5793;52.238;13.438;2024-02-28T13:51:05;6.30;99.90
11474;DHT22;5793;52.238;13.438;2024-02-28T13:53:32;6.40;99.90
11474;DHT22;5793;52.238;13.438;2024-02-28T13:56:00;6.40;99.90
11474;DHT22;5793;52.238;13.438;2024-02-28T13:58:28;6.20;99.90
11474;DHT22;5793;52.238;13.438;2024-02-28T14:01:09;6.20;99.90
11474;DHT22;5793;52.238;13.438;2024-02-28T14:03:37;6.00;99.90
11474;DHT22;5793;52.238;13.438;2024-02-28T14:06:08;6.00;99.90
11474;DHT22;5793;52.238;13.438;2024-02-28T14:08:36;5.80;99.90
11474;DHT22;5793;52.238;13.438;2024-02-28T14:11:09;5.70;99.90
11474;DHT22;5793;52.238;13.438;2024-02-28T14:13:37;5.70;99.90
11474;DHT22;5793;52.238;13.438;2024-02-28T14:16:06;5.70;99.90
11474;DHT22;5793;52.238;13.438;2024-02-28T14:18:36;5.70;99.90
11474;DHT22;5793;52.238;13.438;2024-02-28T14:21:04;5.70;99.90
11474;DHT22;5793;52.238;13.438;2024-02-28T14:23:34;5.60;99.90
11474;DHT22;5793;52.238;13.438;2024-02-28T14:26:02;5.50;99.90
11474;DHT22;5793;52.238;13.438;2024-02-28T14:28:30;5.50;99.90
11474;DHT22;5793;52.238;13.438;2024-02-28T14:30:58;5.50;99.90
11474;DHT22;5793;52.238;13.438;2024-02-28T14:33:26;5.60;99.90
11474;DHT22;5793;52.238;13.438;2024-02-28T14:35:55;5.50;99.90
11474;DHT22;5793;52.238;13.438;2024-02-28T14:38:23;5.60;99.90
11474;DHT22;5793;52.238;13.438;2024-02-28T14:40:50;5.70;99.90
11474;DHT22;5793;52.238;13.438;2024-02-28T14:43:18;5.70;99.90
11474;DHT22;5793;52.238;13.438;2024-02-28T14:45:46;5.70;99.90
11474;DHT22;5793;52.238;13.438;2024-02-28T14:48:14;5.60;99.90
11474;DHT22;5793;52.238;13.438;2024-02-28T14:50:42;5.60;99.90
11474;DHT22;5793;52.238;13.438;2024-02-28T14:53:11;5.60;99.90
11474;DHT22;5793;52.238;13.438;2024-02-28T14:55:39;5.60;99.90
11474;DHT22;5793;52.238;13.438;2024-02-28T14:58:07;5.50;99.90
11474;DHT22;5793;52.238;13.438;2024-02-28T15:00:35;5.60;99.90
11474;DHT22;5793;52.238;13.438;2024-02-28T15:03:03;5.50;99.90
11474;DHT22;5793;52.238;13.438;2024-02-28T15:05:31;5.60;99.90
11474;DHT22;5793;52.238;13.438;2024-02-28T15:07:59;5.50;99.90
11474;DHT22;5793;52.238;13.438;2024-02-28T15:10:28;5.50;99.90
11474;DHT22;5793;52.238;13.438;2024-02-28T15:12:56;5.40;99.90
11474;DHT22;5793;52.238;13.438;2024-02-28T15:15:24;5.40;99.90
11474;DHT22;5793;52.238;13.438;2024-02-28T15:17:52;5.40;99.90
11474;DHT22;5793;52.238;13.438;2024-02-28T15:20:20;5.40;99.90
11474;DHT22;5793;52.238;13.438;2024-02-28T15:22:49;5.50;99.90
11474;DHT22;5793;52.238;13.438;2024-02-28T15:25:17;5.50;99.90
11474;DHT22;5793;52.238;13.438;2024-02-28T15:27:46;5.50;99.90
11474;DHT22;5793;52.238;13.438;2024-02-28T15:30:14;5.50;99.90
11474;DHT22;5793;52.238;13.438;2024-02-28T15:32:42;5.60;99.90
11474;DHT22;5793;52.238;13.438;2024-02-28T15:35:10;5.60;99.90
11474;DHT22;5793;52.238;13.438;2024-02-28T15:37:39;5.50;99.90
11474;DHT22;5793;52.238;13.438;2024-02-28T15:40:07;5.40;99.90
11474;DHT22;5793;52.238;13.438;2024-02-28T15:42:36;5.30;99.90
11474;DHT22;5793;52.238;13.438;2024-02-28T15:45:05;5.20;99.90
11474;DHT22;5793;52.238;13.438;2024-02-28T15:47:33;5.10;99.90
11474;DHT22;5793;52.238;13.438;2024-02-28T15:50:02;5.20;99.90
11474;DHT22;5793;52.238;13.438;2024-02-28T15:52:31;5.10;99.90